»·PEaware :: SWA1847 KSFO-KSAN

SWA1847 :: KSFO-KSAN

FLIGHT INFORMATION

Flight Status: Arrived
Operator:
Southwest Airlines
More flights by this operator :: More flights under this callsign
Pilot: Cody B. (17747)
Aircraft: BOEING 737-800
(B738)
More flights by this aircraft type
Origin: KSFO San Francisco Intl
United States
Destination: KSAN San Diego Intl-Lindbergh
United States
More flights between these airports :: More routes between these airports
Route: +OFFSH1 MCKEY LAX COMIX2
File this flight plan on PilotEdge
Remarks: PBN / A1B1C1D1S1S2 DOF / 180810 REG / N8301J EET / KZLA0029 CODE / AB5ADE OPR / SWA PER / C RMK / TCAS SIMBRIEF
Altitude:
(Current/Filed)
35,000ft
Speed:
(Current/Filed)
453kts
Departed: 10-Aug-18 02:50 PM
Arrived: 10-Aug-18 04:07 PM
Distance/Time
Traveled:
388nm/1:17
Distance/Time
To Go:
Arrived

Flight Plot

Page will automatically refresh every two minutes.

Flight plan parsing failed; only flown route is shown


Map Options




Map Legend


Flown Route
Filed Route
Departure Airport
Arrival Airport
Navaid (VOR, NDB)
Fix

Horizontal Profiles

Position Reports

Time Latitude Longitude Heading Altitude Ground
Speed
10-Aug-18 13:57 37.612636 -122.384670 4 21ft 0kts
10-Aug-18 13:58 37.612636 -122.384670 4 21ft 0kts
10-Aug-18 13:59 37.612636 -122.384670 4 21ft 0kts
10-Aug-18 14:00 37.612636 -122.384670 4 21ft 0kts
10-Aug-18 14:01 37.612636 -122.384670 4 21ft 0kts
10-Aug-18 14:02 37.612636 -122.384670 4 21ft 0kts
10-Aug-18 14:03 37.612636 -122.384670 4 21ft 0kts
10-Aug-18 14:04 37.612636 -122.384670 4 21ft 0kts
10-Aug-18 14:05 37.612636 -122.384670 4 21ft 0kts
10-Aug-18 14:06 37.612636 -122.384670 4 21ft 0kts
10-Aug-18 14:07 37.612636 -122.384670 4 21ft 0kts
10-Aug-18 14:08 37.612636 -122.384670 4 21ft 0kts
10-Aug-18 14:09 37.612636 -122.384670 4 21ft 0kts
10-Aug-18 14:10 37.612636 -122.384670 4 21ft 0kts
10-Aug-18 14:11 37.612636 -122.384670 4 21ft 0kts
10-Aug-18 14:12 37.612636 -122.384670 4 21ft 0kts
10-Aug-18 14:13 37.612636 -122.384670 4 21ft 0kts
10-Aug-18 14:14 37.612636 -122.384670 4 21ft 0kts
10-Aug-18 14:15 37.612636 -122.384670 4 21ft 0kts
10-Aug-18 14:16 37.612636 -122.384670 4 21ft 0kts
10-Aug-18 14:17 37.612636 -122.384670 4 21ft 0kts
10-Aug-18 14:18 37.612636 -122.384670 4 21ft 0kts
10-Aug-18 14:19 37.612636 -122.384670 4 21ft 0kts
10-Aug-18 14:20 37.612636 -122.384670 4 21ft 0kts
10-Aug-18 14:21 37.612636 -122.384670 4 21ft 0kts
10-Aug-18 14:22 37.612636 -122.384670 4 21ft 0kts
10-Aug-18 14:23 37.612636 -122.384670 4 21ft 0kts
10-Aug-18 14:24 37.612636 -122.384670 4 21ft 0kts
10-Aug-18 14:25 37.612636 -122.384670 4 21ft 0kts
10-Aug-18 14:26 37.612636 -122.384670 4 21ft 0kts
10-Aug-18 14:27 37.612636 -122.384670 4 21ft 0kts
10-Aug-18 14:28 37.612636 -122.384670 4 21ft 0kts
10-Aug-18 14:29 37.612636 -122.384670 4 21ft 0kts
10-Aug-18 14:30 37.612636 -122.384670 4 21ft 0kts
10-Aug-18 14:31 37.612636 -122.384670 4 21ft 0kts
10-Aug-18 14:32 37.612636 -122.384670 4 21ft 0kts
10-Aug-18 14:33 37.612636 -122.384670 4 21ft 0kts
10-Aug-18 14:34 37.612636 -122.384670 4 21ft 0kts
10-Aug-18 14:35 37.612636 -122.384670 4 21ft 0kts
10-Aug-18 14:36 37.612636 -122.384670 4 21ft 0kts
10-Aug-18 14:37 37.612635 -122.384670 4 21ft 0kts
10-Aug-18 14:38 37.612635 -122.384670 4 21ft 0kts
10-Aug-18 14:39 37.612137 -122.384737 6 21ft 2kts
10-Aug-18 14:40 37.611586 -122.385012 41 21ft 2kts
10-Aug-18 14:41 37.611278 -122.385655 78 21ft 2kts
10-Aug-18 14:42 37.611332 -122.386381 114 21ft 2kts
10-Aug-18 14:43 37.611385 -122.386512 119 21ft 0kts
10-Aug-18 14:44 37.611385 -122.386512 119 21ft 0kts
10-Aug-18 14:45 37.611124 -122.385870 116 21ft 7kts
10-Aug-18 14:46 37.610664 -122.384753 118 21ft 0kts
10-Aug-18 14:47 37.609758 -122.384237 178 21ft 7kts
10-Aug-18 14:48 37.609091 -122.383444 123 21ft 0kts
10-Aug-18 14:49 37.609079 -122.383422 123 21ft 0kts
10-Aug-18 14:50 37.609173 -122.382093 29 21ft 8kts
10-Aug-18 14:51 37.630817 -122.367255 26 321ft 169kts
10-Aug-18 14:52 37.680505 -122.363969 3 1314ft 232kts
10-Aug-18 14:53 37.748951 -122.353484 4 4414ft 263kts
10-Aug-18 14:54 37.787507 -122.408782 244 7501ft 278kts
10-Aug-18 14:55 37.733852 -122.482469 225 10263ft 305kts
10-Aug-18 14:56 37.671361 -122.561012 225 12970ft 323kts
10-Aug-18 14:57 37.607226 -122.641442 224 15791ft 330kts
10-Aug-18 14:58 37.535509 -122.710539 202 18256ft 336kts
10-Aug-18 14:59 37.443123 -122.701493 166 20283ft 354kts
10-Aug-18 15:00 37.345584 -122.673710 168 22162ft 369kts
10-Aug-18 15:01 37.243369 -122.646404 168 23909ft 383kts
10-Aug-18 15:02 37.138701 -122.618718 168 25002ft 387kts
10-Aug-18 15:03 37.033013 -122.590915 169 26172ft 392kts
10-Aug-18 15:04 36.926179 -122.562937 169 27364ft 393kts
10-Aug-18 15:05 36.820639 -122.535405 169 28550ft 392kts
10-Aug-18 15:06 36.713745 -122.507617 170 29761ft 394kts
10-Aug-18 15:07 36.606943 -122.479943 170 30969ft 392kts
10-Aug-18 15:08 36.501131 -122.452599 170 32167ft 388kts
10-Aug-18 15:09 36.417342 -122.416232 147 33191ft 390kts
10-Aug-18 15:10 36.345283 -122.321200 134 34367ft 387kts
10-Aug-18 15:11 36.264823 -122.203404 133 35073ft 393kts
10-Aug-18 15:12 36.204569 -122.115715 133 35076ft 409kts
10-Aug-18 15:13 36.129228 -122.006405 133 35075ft 428kts
10-Aug-18 15:14 36.036922 -121.872980 133 35074ft 447kts
10-Aug-18 15:15 35.969279 -121.775539 133 35076ft 450kts
10-Aug-18 15:16 35.889275 -121.660664 132 35072ft 451kts
10-Aug-18 15:17 35.807714 -121.543952 132 35021ft 450kts
10-Aug-18 15:18 35.726057 -121.427529 132 35021ft 451kts
10-Aug-18 15:19 35.646486 -121.314465 133 35018ft 449kts
10-Aug-18 15:20 35.564772 -121.198791 133 35019ft 451kts
10-Aug-18 15:21 35.482430 -121.082523 131 35016ft 451kts
10-Aug-18 15:22 35.417713 -120.950933 122 35056ft 454kts
10-Aug-18 15:23 35.353839 -120.817835 122 35054ft 454kts
10-Aug-18 15:24 35.283478 -120.690653 130 35067ft 453kts
10-Aug-18 15:25 35.229125 -120.553307 117 35047ft 455kts
10-Aug-18 15:26 35.160859 -120.423488 125 35056ft 455kts
10-Aug-18 15:27 35.086563 -120.302589 131 35063ft 453kts
10-Aug-18 15:28 35.005340 -120.184891 131 35062ft 455kts
10-Aug-18 15:29 34.923704 -120.067042 131 35060ft 457kts
10-Aug-18 15:30 34.848315 -119.958597 131 35049ft 456kts
10-Aug-18 15:31 34.766126 -119.841590 132 35049ft 457kts
10-Aug-18 15:32 34.691077 -119.718282 125 35048ft 458kts
10-Aug-18 15:33 34.618502 -119.591203 124 35046ft 459kts
10-Aug-18 15:34 34.545835 -119.464579 124 35048ft 459kts
10-Aug-18 15:35 34.473611 -119.338666 125 35046ft 459kts
10-Aug-18 15:36 34.408547 -119.225139 125 35043ft 459kts
10-Aug-18 15:37 34.335727 -119.098983 125 35047ft 459kts
10-Aug-18 15:38 34.266021 -118.979499 125 35045ft 459kts
10-Aug-18 15:39 34.189984 -118.855555 126 35051ft 462kts
10-Aug-18 15:40 34.114537 -118.733947 126 35054ft 461kts
10-Aug-18 15:41 34.037782 -118.610746 126 35043ft 460kts
10-Aug-18 15:42 33.964542 -118.493870 126 34068ft 436kts
10-Aug-18 15:43 33.891346 -118.375369 123 31557ft 462kts
10-Aug-18 15:44 33.809468 -118.270600 134 29022ft 457kts
10-Aug-18 15:45 33.724651 -118.170049 134 26670ft 421kts
10-Aug-18 15:46 33.650435 -118.066428 131 24650ft 405kts
10-Aug-18 15:47 33.576251 -117.968149 132 22753ft 391kts
10-Aug-18 15:48 33.502032 -117.877291 135 20985ft 377kts
10-Aug-18 15:49 33.428516 -117.792609 136 19328ft 360kts
10-Aug-18 15:50 33.355231 -117.714176 136 17677ft 350kts
10-Aug-18 15:51 33.283337 -117.637491 136 17163ft 352kts
10-Aug-18 15:52 33.211705 -117.561593 136 15524ft 338kts
10-Aug-18 15:53 33.146187 -117.492782 136 14076ft 298kts
10-Aug-18 15:54 33.081717 -117.435758 142 12790ft 285kts
10-Aug-18 15:55 33.016871 -117.382004 143 11600ft 283kts
10-Aug-18 15:56 32.954380 -117.329839 144 10373ft 272kts
10-Aug-18 15:57 32.893759 -117.279355 145 9275ft 266kts
10-Aug-18 15:58 32.833825 -117.229677 145 8201ft 261kts
10-Aug-18 15:59 32.798585 -117.158626 106 7156ft 256kts
10-Aug-18 16:00 32.781549 -117.080383 106 6198ft 238kts
10-Aug-18 16:01 32.763910 -117.005352 108 5451ft 239kts
10-Aug-18 16:02 32.726975 -116.952185 179 4554ft 216kts
10-Aug-18 16:03 32.687097 -116.994094 264 3524ft 201kts
10-Aug-18 16:04 32.699625 -117.054195 284 2471ft 173kts
10-Aug-18 16:05 32.713586 -117.103869 286 1780ft 146kts
10-Aug-18 16:06 32.723941 -117.148781 282 687ft 139kts
10-Aug-18 16:07 32.733644 -117.190136 286 25ft 52kts
10-Aug-18 16:08 32.734223 -117.194855 249 25ft 6kts
10-Aug-18 16:09 32.734018 -117.195677 267 25ft 5kts
10-Aug-18 16:10 32.733675 -117.197019 198 25ft 0kts
10-Aug-18 16:11 32.733164 -117.196787 141 25ft 0kts
10-Aug-18 16:12 32.733131 -117.196754 141 25ft 0kts
10-Aug-18 16:13 32.733131 -117.196754 141 25ft 0kts
10-Aug-18 16:14 32.733131 -117.196754 141 25ft 0kts
10-Aug-18 16:15 32.733131 -117.196754 141 25ft 0kts

Navigation Log

Ident Type
Flight plan parsing failed, navigation log unavailable